Time;durP1;ratioP1;P1;durP2;ratioP2;P2;SDS_P1;SDS_P2;PMS_P1;PMS_P2;Temp;Humidity;BMP_temperature;BMP_pressure;BME280_temperature;BME280_humidity;BME280_pressure;Samples;Min_cycle;Max_cycle;Signal;HPM_P1;HPM_P2
2021/12/01 00:01:35;;;;;;;2.27;0.60;;;;;;;2.85;80.52;99181.58;1755140;81;21054;-73
2021/12/01 00:04:02;;;;;;;1.93;0.70;;;;;;;2.86;80.48;99181.16;1755003;81;21030;-73
2021/12/01 00:06:29;;;;;;;5.67;1.20;;;;;;;2.89;80.56;99191.43;1754954;81;21544;-73
2021/12/01 00:08:56;;;;;;;1.73;0.77;;;;;;;2.91;80.38;99196.13;1754943;81;21261;-73
2021/12/01 00:11:23;;;;;;;1.57;0.50;;;;;;;2.90;80.47;99195.70;1755014;81;21429;-73
2021/12/01 00:13:50;;;;;;;3.07;1.43;;;;;;;2.87;80.54;99197.08;1754937;81;21559;-75
2021/12/01 00:16:17;;;;;;;2.87;0.70;;;;;;;2.85;80.65;99199.69;1754989;81;21031;-73
2021/12/01 00:18:44;;;;;;;2.67;0.80;;;;;;;2.83;80.67;99209.70;1755031;81;20994;-73
2021/12/01 00:21:12;;;;;;;1.93;0.70;;;;;;;2.84;80.70;99207.06;1754967;81;20995;-73
2021/12/01 00:23:39;;;;;;;3.77;0.80;;;;;;;2.85;80.62;99226.87;1755045;81;21172;-73
2021/12/01 00:26:06;;;;;;;3.23;0.90;;;;;;;2.86;80.44;99228.59;1754720;81;21524;-74
2021/12/01 00:28:33;;;;;;;2.70;1.20;;;;;;;2.83;80.55;99229.95;1763512;80;21006;-73
2021/12/01 00:31:00;;;;;;;1.93;0.80;;;;;;;2.81;80.66;99238.20;1776921;79;21014;-73
2021/12/01 00:33:27;;;;;;;2.10;0.80;;;;;;;2.79;80.71;99249.02;1777082;80;21015;-75
2021/12/01 00:35:56;;;;;;;2.33;0.70;;;;;;;2.77;80.76;99252.52;1777307;80;21241;-73
2021/12/01 00:38:25;;;;;;;4.37;0.60;;;;;;;2.78;80.72;99251.20;1776941;80;20990;-73
2021/12/01 00:40:53;;;;;;;2.80;0.63;;;;;;;2.81;80.63;99246.41;1777529;79;21507;-73
2021/12/01 00:43:23;;;;;;;2.03;0.70;;;;;;;2.79;80.56;99258.08;1776903;80;21022;-73
2021/12/01 00:46:08;;;;;;;1.30;0.53;;;;;;;2.77;80.77;99256.41;1724411;80;21505;-74
2021/12/01 00:48:24;;;;;;;2.00;0.70;;;;;;;2.75;80.76;99251.73;1775106;80;21718;-73
2021/12/01 00:50:54;;;;;;;1.87;0.80;;;;;;;2.74;80.92;99263.80;1723786;82;20981;-73
2021/12/01 00:53:20;;;;;;;1.73;0.70;;;;;;;2.73;80.83;99272.91;1776670;80;21531;-72
2021/12/01 00:55:47;;;;;;;1.30;0.70;;;;;;;2.75;80.66;99279.75;1777172;80;20962;-72
2021/12/01 00:58:15;;;;;;;2.67;0.97;;;;;;;2.75;80.59;99274.57;1777016;80;21002;-73
2021/12/01 01:00:44;;;;;;;3.13;0.70;;;;;;;2.76;80.63;99289.20;1777265;80;21192;-73
2021/12/01 01:03:11;;;;;;;2.07;0.80;;;;;;;2.76;80.74;99300.00;1776753;80;21061;-73
2021/12/01 01:05:38;;;;;;;2.60;0.70;;;;;;;2.73;80.76;99300.92;1776918;80;21595;-73
2021/12/01 01:08:07;;;;;;;3.23;0.70;;;;;;;2.71;80.73;99313.03;1776967;79;21466;-73
2021/12/01 01:18:45;;;;;;;3.87;0.77;;;;;;;2.71;80.53;99330.30;1777316;80;20959;-73
2021/12/01 01:21:13;;;;;;;1.75;0.72;;;;;;;2.66;80.64;99332.56;1777008;80;20983;-73
2021/12/01 01:23:40;;;;;;;3.30;1.03;;;;;;;2.65;80.78;99333.42;1777182;79;20994;-73
2021/12/01 01:26:11;;;;;;;1.17;0.60;;;;;;;2.64;80.88;99332.18;1776886;80;21944;-73
2021/12/01 01:28:39;;;;;;;1.10;0.50;;;;;;;2.62;80.78;99332.20;1723850;82;21008;-73
2021/12/01 01:31:06;;;;;;;1.77;0.83;;;;;;;2.63;80.75;99335.22;1777206;79;20951;-73
2021/12/01 01:33:33;;;;;;;2.53;0.50;;;;;;;2.66;80.78;99336.86;1777285;80;20998;-73
2021/12/01 01:36:00;;;;;;;1.77;0.50;;;;;;;2.69;80.73;99345.87;1776995;80;21385;-73
2021/12/01 01:38:31;;;;;;;1.67;0.50;;;;;;;2.70;80.74;99350.16;1777030;80;21103;-73
2021/12/01 01:40:56;;;;;;;2.37;0.93;;;;;;;2.67;80.71;99352.36;1723961;80;20985;-73
2021/12/01 01:43:24;;;;;;;1.73;0.50;;;;;;;2.66;80.83;99352.38;1777318;80;21021;-73
2021/12/01 01:45:56;;;;;;;1.53;0.57;;;;;;;2.66;80.92;99353.67;1723688;82;21059;-73
2021/12/01 01:48:33;;;;;;;1.97;0.70;;;;;;;2.64;80.73;99353.72;1777419;80;21503;-73
2021/12/01 01:50:52;;;;;;;9.30;4.10;;;;;;;2.60;80.72;99355.95;1725388;81;22051;-73
2021/12/01 01:53:22;;;;;;;5.63;2.43;;;;;;;2.57;80.68;99360.34;1777414;80;21005;-73
2021/12/01 01:55:52;;;;;;;12.00;6.83;;;;;;;2.56;80.56;99360.80;1723721;80;21012;-74
2021/12/01 01:58:21;;;;;;;3.40;1.45;;;;;;;2.54;80.46;99361.70;1777442;80;20987;-74
2021/12/01 02:00:52;;;;;;;8.20;2.10;;;;;;;2.50;80.39;99360.93;1777010;80;20966;-73
2021/12/01 02:03:23;;;;;;;2.33;1.10;;;;;;;2.46;80.51;99366.59;1777177;80;21104;-73
2021/12/01 02:05:52;;;;;;;5.97;2.70;;;;;;;2.45;80.60;99367.92;1723549;82;20996;-76
2021/12/01 02:08:26;;;;;;;8.73;2.97;;;;;;;2.42;80.76;99367.99;1776915;79;21003;-73
2021/12/01 02:10:50;;;;;;;7.40;2.27;;;;;;;2.40;80.68;99371.89;1725454;80;21497;-73
2021/12/01 02:13:19;;;;;;;8.40;2.50;;;;;;;2.37;80.65;99374.98;1777298;79;20990;-73
2021/12/01 02:15:49;;;;;;;8.10;2.73;;;;;;;2.33;80.39;99378.50;1776947;79;21107;-75
2021/12/01 02:18:18;;;;;;;4.25;1.47;;;;;;;2.29;80.34;99382.89;1777225;80;21002;-73
2021/12/01 02:21:02;;;;;;;8.33;1.80;;;;;;;2.23;80.24;99387.74;1777186;79;21054;-73
2021/12/01 02:23:30;;;;;;;5.60;1.30;;;;;;;2.18;80.24;99393.44;1684824;84;21041;-74
2021/12/01 02:25:57;;;;;;;11.00;2.53;;;;;;;2.11;80.36;99392.31;1684993;85;21503;-73
2021/12/01 02:28:24;;;;;;;10.17;2.93;;;;;;;2.06;80.43;99391.09;1685244;85;21725;-74
2021/12/01 02:30:51;;;;;;;9.70;2.93;;;;;;;2.01;80.50;99397.63;1684704;84;21110;-73
2021/12/01 02:33:21;;;;;;;6.77;2.27;;;;;;;1.97;80.57;99388.24;1684906;85;21507;-74
2021/12/01 02:35:48;;;;;;;5.30;1.60;;;;;;;1.95;80.63;99383.53;1685104;85;20987;-76
2021/12/01 02:38:16;;;;;;;4.60;1.53;;;;;;;1.94;80.44;99394.77;1684897;85;21561;-74
2021/12/01 02:40:44;;;;;;;7.80;2.50;;;;;;;1.90;80.41;99384.50;1708439;83;21115;-73
2021/12/01 02:43:11;;;;;;;9.77;2.33;;;;;;;1.89;80.51;99386.68;1685128;85;21101;-74
2021/12/01 02:45:41;;;;;;;7.17;2.00;;;;;;;1.86;80.51;99390.59;1684903;85;21045;-73
2021/12/01 02:48:12;;;;;;;;;;;;;;;1.82;80.62;99387.22;1687645;85;21037;-73
2021/12/01 02:50:39;;;;;;;10.30;3.17;;;;;;;1.81;80.74;99387.26;1684974;83;21216;-74
2021/12/01 02:53:06;;;;;;;12.40;3.33;;;;;;;1.76;80.96;99382.16;1685079;85;21554;-73
2021/12/01 02:55:41;;;;;;;14.50;4.37;;;;;;;1.74;80.94;99387.34;1684976;85;21503;-73
2021/12/01 02:58:09;;;;;;;15.93;4.23;;;;;;;1.72;81.04;99388.27;1683712;85;21057;-73
2021/12/01 03:00:36;;;;;;;9.33;1.93;;;;;;;1.72;81.04;99382.66;1776263;80;20925;-73
2021/12/01 03:03:04;;;;;;;10.77;2.43;;;;;;;1.73;80.83;99379.19;1777441;79;21006;-73
2021/12/01 03:05:31;;;;;;;5.67;1.03;;;;;;;1.76;81.18;99385.59;1777124;80;21215;-74
2021/12/01 03:07:58;;;;;;;3.33;0.93;;;;;;;1.80;81.09;99385.09;1723830;82;21451;-73
2021/12/01 03:10:25;;;;;;;5.83;0.80;;;;;;;1.79;81.12;99379.52;1777378;80;20998;-73
2021/12/01 03:12:52;;;;;;;6.87;1.73;;;;;;;1.74;81.13;99378.30;1776889;80;22013;-74
2021/12/01 03:15:19;;;;;;;12.27;3.83;;;;;;;1.74;81.31;99378.30;1777354;80;21018;-74
2021/12/01 03:17:46;;;;;;;12.40;4.00;;;;;;;1.69;81.18;99375.38;1776955;80;21453;-73
2021/12/01 03:20:15;;;;;;;9.97;3.10;;;;;;;1.65;81.08;99375.89;1777333;79;21005;-74
2021/12/01 03:22:44;;;;;;;3.67;0.83;;;;;;;1.64;81.35;99373.34;1776961;80;20960;-77
2021/12/01 03:25:13;;;;;;;6.03;1.30;;;;;;;1.64;81.04;99367.73;1777423;80;21449;-77
2021/12/01 03:27:41;;;;;;;3.97;1.20;;;;;;;1.66;81.13;99364.66;1723874;82;21031;-73
2021/12/01 03:30:11;;;;;;;3.13;0.97;;;;;;;1.56;80.79;99365.72;1778173;79;21108;-76
2021/12/01 03:32:39;;;;;;;1.55;0.50;;;;;;;1.53;80.96;99369.20;1805939;79;21365;-74
2021/12/01 03:35:11;;;;;;;3.10;1.23;;;;;;;1.51;81.01;99370.11;1797834;79;22075;-73
2021/12/01 03:37:40;;;;;;;8.30;2.53;;;;;;;1.47;81.10;99373.19;1808972;79;20963;-77
2021/12/01 03:40:10;;;;;;;4.33;1.57;;;;;;;1.47;81.35;99371.89;1809151;79;20977;-73
2021/12/01 03:42:38;;;;;;;5.05;1.00;;;;;;;1.47;81.47;99374.89;1808984;79;22145;-74
2021/12/01 03:45:07;;;;;;;5.80;2.07;;;;;;;1.46;81.48;99368.03;1808833;79;21483;-74
2021/12/01 03:47:34;;;;;;;7.23;2.70;;;;;;;1.46;81.59;99364.16;1809167;78;21006;-73
2021/12/01 03:50:01;;;;;;;7.73;3.83;;;;;;;1.49;81.83;99349.45;1808946;79;21002;-73
2021/12/01 03:52:28;;;;;;;8.90;3.40;;;;;;;1.54;81.70;99354.11;1809126;79;21050;-74
2021/12/01 03:54:55;;;;;;;12.53;5.93;;;;;;;1.54;81.50;99348.95;1808874;79;21114;-73
2021/12/01 03:57:22;;;;;;;7.87;3.80;;;;;;;1.52;81.25;99346.85;1809217;78;20990;-73
2021/12/01 03:59:49;;;;;;;6.30;1.70;;;;;;;1.49;81.33;99340.86;1808849;78;21006;-73
2021/12/01 04:02:16;;;;;;;5.47;1.60;;;;;;;1.47;81.80;99336.16;1809155;79;21030;-76
2021/12/01 04:04:43;;;;;;;5.07;1.60;;;;;;;1.49;81.85;99331.83;1808803;79;20948;-73
2021/12/01 04:07:11;;;;;;;2.17;0.93;;;;;;;1.43;81.70;99324.19;1809107;78;21855;-74
2021/12/01 04:09:42;;;;;;;5.43;1.00;;;;;;;1.40;81.58;99325.54;1808890;79;21007;-74
2021/12/01 04:12:09;;;;;;;4.60;1.00;;;;;;;1.39;82.01;99325.14;1808919;79;21594;-73
2021/12/01 04:14:37;;;;;;;3.87;1.40;;;;;;;1.42;81.51;99331.09;1808933;79;20982;-73
2021/12/01 04:17:05;;;;;;;3.40;1.37;;;;;;;1.34;81.21;99329.08;1808807;79;21269;-73
2021/12/01 04:19:33;;;;;;;4.27;0.70;;;;;;;1.29;81.10;99327.01;1809038;79;21090;-73
2021/12/01 04:22:00;;;;;;;3.57;0.87;;;;;;;1.20;81.02;99325.43;1808870;79;20998;-74
2021/12/01 04:24:28;;;;;;;5.27;1.30;;;;;;;1.15;81.28;99324.65;1809082;78;20982;-73
2021/12/01 04:26:57;;;;;;;3.50;1.00;;;;;;;1.08;81.34;99323.03;1808863;79;20918;-73
2021/12/01 04:29:26;;;;;;;4.23;1.10;;;;;;;1.03;81.63;99322.27;1809151;78;20971;-73
2021/12/01 04:31:53;;;;;;;5.37;0.90;;;;;;;0.98;81.76;99328.78;1808821;78;21796;-74
2021/12/01 04:34:20;;;;;;;2.43;0.90;;;;;;;0.97;81.56;99336.53;1808982;79;21464;-74
2021/12/01 04:36:50;;;;;;;3.33;0.90;;;;;;;0.93;81.58;99328.00;1808792;78;21002;-73
2021/12/01 04:39:18;;;;;;;2.67;0.77;;;;;;;0.94;81.71;99319.38;1809094;78;20978;-73
2021/12/01 04:41:52;;;;;;;5.17;0.77;;;;;;;0.94;81.88;99316.79;1808832;78;21002;-73
2021/12/01 04:44:21;;;;;;;2.87;0.87;;;;;;;0.92;81.62;99313.41;1809031;79;21179;-73
2021/12/01 04:46:52;;;;;;;5.87;1.00;;;;;;;0.85;81.67;99310.05;1808762;79;21240;-73
2021/12/01 04:49:22;;;;;;;4.47;1.22;;;;;;;0.80;81.74;99313.58;1809314;78;21465;-73
2021/12/01 04:51:58;;;;;;;3.47;1.20;;;;;;;0.74;81.73;99320.12;1809114;79;28316;-73
2021/12/01 04:54:26;;;;;;;8.77;1.30;;;;;;;0.66;81.77;99312.48;1808869;79;21014;-73
2021/12/01 04:56:55;;;;;;;5.60;1.40;;;;;;;0.60;81.70;99307.42;1808789;79;21118;-73
2021/12/01 04:59:23;;;;;;;4.90;1.37;;;;;;;0.57;81.71;99308.75;1808746;79;20998;-73
2021/12/01 05:01:53;;;;;;;2.87;1.13;;;;;;;0.54;81.81;99315.25;1808781;79;20955;-76
2021/12/01 05:04:21;;;;;;;3.65;1.50;;;;;;;0.53;82.00;99314.84;1808914;79;21037;-73
2021/12/01 05:06:50;;;;;;;7.00;1.73;;;;;;;0.52;82.28;99313.97;1808838;78;21559;-77
2021/12/01 05:09:17;;;;;;;4.33;1.30;;;;;;;0.49;82.43;99309.30;1808866;79;21167;-73
2021/12/01 05:11:44;;;;;;;3.63;1.13;;;;;;;0.47;82.56;99308.02;1808982;79;21010;-74
2021/12/01 05:14:13;;;;;;;4.93;1.40;;;;;;;0.47;82.63;99302.02;1808690;79;20994;-74
2021/12/01 05:16:41;;;;;;;4.70;1.50;;;;;;;0.50;82.63;99295.11;1809089;79;20982;-73
2021/12/01 05:19:10;;;;;;;5.73;1.97;;;;;;;0.52;82.67;99292.49;1808896;79;21337;-73
2021/12/01 05:21:39;;;;;;;5.57;2.37;;;;;;;0.55;82.62;99291.16;1809092;78;22294;-73
2021/12/01 05:24:07;;;;;;;6.30;2.83;;;;;;;0.54;82.62;99289.02;1808760;79;21022;-73
2021/12/01 05:26:35;;;;;;;5.03;2.07;;;;;;;0.53;82.68;99282.61;1809076;79;21512;-74
2021/12/01 05:29:02;;;;;;;7.07;2.13;;;;;;;0.51;82.87;99273.59;1808872;79;20967;-74
2021/12/01 05:31:29;;;;;;;6.43;2.17;;;;;;;0.58;83.66;99273.94;1808990;78;21005;-74
2021/12/01 05:33:57;;;;;;;15.10;6.50;;;;;;;0.68;83.90;99257.03;1808947;78;21952;-77
2021/12/01 05:36:23;;;;;;;11.23;4.13;;;;;;;0.76;83.85;99256.47;1809067;79;20947;-73
2021/12/01 05:38:50;;;;;;;3.27;1.27;;;;;;;0.82;83.71;99252.06;1808829;78;21505;-76
2021/12/01 05:41:18;;;;;;;5.60;1.50;;;;;;;0.87;83.53;99246.39;1809120;79;20976;-73
2021/12/01 05:43:45;;;;;;;2.93;1.20;;;;;;;0.91;83.45;99239.45;1808816;79;20997;-73
2021/12/01 05:46:12;;;;;;;5.57;1.70;;;;;;;0.97;83.41;99237.20;1809184;79;21762;-73
2021/12/01 05:48:39;;;;;;;8.80;2.83;;;;;;;1.00;83.64;99237.14;1808613;79;20967;-75
2021/12/01 05:51:07;;;;;;;9.57;3.93;;;;;;;1.00;83.45;99239.31;1809031;79;21019;-74
2021/12/01 05:53:34;;;;;;;7.87;4.70;;;;;;;1.00;83.49;99244.89;1808932;78;20951;-74
2021/12/01 05:56:02;;;;;;;4.57;2.37;;;;;;;1.00;83.46;99241.89;1809121;79;20980;-73
2021/12/01 05:58:29;;;;;;;5.03;1.70;;;;;;;1.00;83.46;99234.16;1808960;79;21109;-73
2021/12/01 06:00:56;;;;;;;5.50;1.80;;;;;;;0.99;83.37;99232.43;1809132;79;21425;-73
2021/12/01 06:03:23;;;;;;;5.97;2.73;;;;;;;1.05;83.30;99237.92;1808969;79;21006;-73
2021/12/01 06:05:50;;;;;;;5.77;1.97;;;;;;;1.10;83.41;99231.80;1809279;78;21499;-74
2021/12/01 06:08:17;;;;;;;7.03;2.00;;;;;;;1.15;83.29;99220.12;1808889;79;21493;-74
2021/12/01 06:10:45;;;;;;;10.57;3.00;;;;;;;1.18;83.22;99214.06;1809227;78;21104;-73
2021/12/01 06:13:17;;;;;;;10.40;4.10;;;;;;;1.17;83.33;99218.82;1808744;79;21373;-74
2021/12/01 06:15:45;;;;;;;6.97;1.93;;;;;;;1.17;83.43;99222.69;1809253;78;21221;-73
2021/12/01 06:18:12;;;;;;;6.03;1.90;;;;;;;1.15;83.30;99210.24;1808983;79;21347;-73
2021/12/01 06:20:40;;;;;;;5.00;1.97;;;;;;;1.15;83.62;99212.38;1809276;79;20998;-74
2021/12/01 06:23:07;;;;;;;7.63;2.47;;;;;;;1.18;83.64;99207.61;1808823;79;21120;-73
2021/12/01 06:25:35;;;;;;;5.70;1.70;;;;;;;1.20;83.58;99197.67;1809147;79;21030;-73
2021/12/01 06:28:03;;;;;;;8.30;2.27;;;;;;;1.21;83.41;99189.03;1808877;79;21017;-74
2021/12/01 06:30:34;;;;;;;6.63;1.70;;;;;;;1.24;83.34;99184.26;1809205;79;21049;-73
2021/12/01 06:33:02;;;;;;;39.67;17.07;;;;;;;1.24;83.27;99177.36;1814078;78;21298;-73
2021/12/01 06:35:29;;;;;;;67.03;31.47;;;;;;;1.27;83.23;99168.70;1814385;78;21771;-73
2021/12/01 06:37:56;;;;;;;106.70;56.30;;;;;;;1.25;83.42;99162.75;1814307;78;21591;-73
2021/12/01 06:40:25;;;;;;;125.70;64.00;;;;;;;1.28;83.81;99156.23;1814346;79;21546;-74
2021/12/01 06:42:53;;;;;;;26.27;15.03;;;;;;;1.29;83.67;99154.89;1814195;79;21002;-74
2021/12/01 06:45:21;;;;;;;10.33;3.83;;;;;;;1.25;83.47;99155.84;1814335;79;21050;-73
2021/12/01 06:47:48;;;;;;;7.20;3.10;;;;;;;1.23;83.54;99155.47;1814294;79;21116;-73
2021/12/01 06:50:16;;;;;;;12.27;2.47;;;;;;;1.23;83.78;99160.18;1814225;79;21469;-73
2021/12/01 06:52:44;;;;;;;10.73;2.73;;;;;;;1.29;83.69;99152.76;1814445;78;20986;-74
2021/12/01 06:55:11;;;;;;;9.23;3.30;;;;;;;1.32;83.61;99154.83;1814398;79;21014;-72
2021/12/01 06:57:38;;;;;;;9.90;3.50;;;;;;;1.31;83.57;99157.02;1814250;79;21036;-73
2021/12/01 07:00:10;;;;;;;17.07;7.60;;;;;;;1.37;83.60;99143.58;1814664;79;21102;-74
2021/12/01 07:02:37;;;;;;;16.80;7.63;;;;;;;1.39;83.90;99143.97;1814242;79;21026;-73
2021/12/01 07:05:05;;;;;;;16.97;8.30;;;;;;;1.44;84.17;99138.69;1814267;79;21054;-73
2021/12/01 07:07:32;;;;;;;11.73;5.83;;;;;;;1.48;84.21;99138.60;1808347;79;21268;-73
2021/12/01 07:09:59;;;;;;;13.87;6.00;;;;;;;1.47;84.18;99133.45;1805743;79;21531;-74
2021/12/01 07:12:26;;;;;;;22.83;9.97;;;;;;;1.51;84.31;99133.82;1814502;79;21178;-77
2021/12/01 07:14:53;;;;;;;20.90;12.43;;;;;;;1.53;84.50;99130.77;1783335;78;21057;-73
2021/12/01 07:17:20;;;;;;;11.27;4.83;;;;;;;1.62;84.55;99126.70;1734106;82;21020;-74
2021/12/01 07:19:48;;;;;;;9.87;3.77;;;;;;;1.69;84.46;99120.95;1782435;80;20990;-73
2021/12/01 07:22:16;;;;;;;13.73;5.50;;;;;;;1.75;84.49;99106.63;1782160;80;21028;-73
2021/12/01 07:24:45;;;;;;;13.87;5.77;;;;;;;1.81;84.33;99108.23;1782565;80;21168;-74
2021/12/01 07:27:11;;;;;;;10.20;4.20;;;;;;;1.83;84.36;99102.56;1782118;80;21475;-75
2021/12/01 07:29:38;;;;;;;12.90;3.83;;;;;;;1.84;84.48;99104.28;1782450;80;21017;-73
2021/12/01 07:32:06;;;;;;;13.47;3.87;;;;;;;1.86;84.49;99097.33;1780443;79;21603;-73
2021/12/01 07:34:41;;;;;;;14.10;5.27;;;;;;;1.85;84.50;99091.31;1730724;81;21012;-74
2021/12/01 07:37:02;;;;;;;42.90;18.57;;;;;;;1.86;84.60;99089.58;1808248;78;21287;-73
2021/12/01 07:39:29;;;;;;;30.37;14.87;;;;;;;1.87;84.81;99084.83;1808875;79;21042;-74
2021/12/01 07:41:55;;;;;;;29.03;14.50;;;;;;;1.93;84.78;99076.48;1808897;78;20955;-75
2021/12/01 07:44:22;;;;;;;51.23;25.10;;;;;;;1.97;84.52;99064.36;1808885;79;21511;-75
2021/12/01 07:46:49;;;;;;;26.77;13.70;;;;;;;2.03;84.70;99058.20;1808920;79;20971;-78
2021/12/01 07:49:19;;;;;;;41.90;21.50;;;;;;;2.07;84.56;99056.78;1809018;79;21113;-75
2021/12/01 07:51:45;;;;;;;38.80;17.57;;;;;;;2.11;84.78;99053.25;1806692;78;21022;-75
2021/12/01 07:54:12;;;;;;;43.17;20.33;;;;;;;2.15;84.94;99052.27;1800584;79;21253;-77
2021/12/01 07:56:39;;;;;;;28.20;11.10;;;;;;;2.17;85.14;99053.09;1808524;78;21007;-76
2021/12/01 07:59:06;;;;;;;26.83;10.50;;;;;;;2.20;85.15;99047.00;1783505;79;21275;-76
2021/12/01 08:01:33;;;;;;;32.10;15.03;;;;;;;2.18;85.11;99041.86;1778206;79;21928;-78
2021/12/01 08:04:00;;;;;;;53.73;17.93;;;;;;;2.21;85.11;99041.78;1765718;79;21065;-75
2021/12/01 08:06:30;;;;;;;20.53;7.47;;;;;;;2.18;84.90;99038.43;1760155;81;21009;-74
2021/12/01 08:08:59;;;;;;;20.13;7.10;;;;;;;2.17;84.90;99027.70;1760120;81;21021;-75
2021/12/01 08:11:24;;;;;;;22.43;7.67;;;;;;;2.21;84.90;99024.13;1760033;81;21056;-74
2021/12/01 08:13:51;;;;;;;26.90;9.47;;;;;;;2.26;84.94;99014.98;1773113;79;21492;-74
2021/12/01 08:16:18;;;;;;;28.30;10.67;;;;;;;2.27;84.94;99017.50;1801179;79;21018;-74
2021/12/01 08:18:51;;;;;;;24.73;9.07;;;;;;;2.31;84.95;99010.09;1808771;79;20999;-75
2021/12/01 08:21:14;;;;;;;17.83;8.00;;;;;;;2.31;85.02;99003.63;1795823;79;21033;-78
2021/12/01 08:23:41;;;;;;;24.40;8.80;;;;;;;2.29;85.17;98992.47;1777231;78;21069;-77
2021/12/01 08:26:07;;;;;;;27.57;8.23;;;;;;;2.26;85.10;98992.55;1777059;79;21094;-74
2021/12/01 08:28:34;;;;;;;23.33;8.30;;;;;;;2.26;85.22;98983.50;1777134;79;21017;-78
2021/12/01 08:31:01;;;;;;;18.27;7.17;;;;;;;2.23;85.28;98977.13;1776923;79;21018;-75
2021/12/01 08:33:28;;;;;;;143.77;61.93;;;;;;;2.26;85.20;98969.73;1781582;79;21010;-75
2021/12/01 08:35:55;;;;;;;101.97;44.27;;;;;;;2.29;85.07;98969.20;1743016;81;21490;-75
2021/12/01 08:38:22;;;;;;;100.63;50.10;;;;;;;2.28;84.98;98958.47;1742378;81;21118;-74
2021/12/01 08:40:49;;;;;;;44.23;16.97;;;;;;;2.27;85.03;98954.61;1742542;82;21026;-74
2021/12/01 08:43:16;;;;;;;142.33;62.33;;;;;;;2.28;85.08;98953.30;1742431;81;21022;-79
2021/12/01 08:45:43;;;;;;;45.40;22.77;;;;;;;2.27;85.29;98950.73;1731616;82;21014;-74
2021/12/01 08:48:10;;;;;;;33.30;18.90;;;;;;;2.27;85.48;98943.83;1803200;79;20982;-75
2021/12/01 08:50:38;;;;;;;30.03;12.80;;;;;;;2.29;85.68;98943.34;1814657;79;21133;-73
2021/12/01 08:53:05;;;;;;;23.23;11.57;;;;;;;2.31;85.81;98935.56;1814071;78;21506;-75
2021/12/01 08:55:32;;;;;;;22.83;8.97;;;;;;;2.40;85.93;98930.97;1814479;78;20991;-74
2021/12/01 08:57:59;;;;;;;17.23;8.43;;;;;;;2.47;85.95;98925.20;1800886;77;20895;-74
2021/12/01 09:00:27;;;;;;;24.23;9.00;;;;;;;2.52;85.92;98911.67;1728281;82;21549;-75
2021/12/01 09:02:54;;;;;;;21.83;8.23;;;;;;;2.57;85.82;98916.28;1755790;81;21442;-75
2021/12/01 09:05:21;;;;;;;22.07;8.90;;;;;;;2.60;86.07;98911.47;1811547;79;20997;-80
2021/12/01 09:07:48;;;;;;;21.07;8.77;;;;;;;2.65;86.19;98899.25;1792703;79;22313;-75
2021/12/01 09:10:15;;;;;;;20.30;8.00;;;;;;;2.69;86.35;98895.70;1782501;79;21455;-74
2021/12/01 09:12:43;;;;;;;21.90;7.03;;;;;;;2.76;86.44;98893.31;1742177;82;20990;-75
2021/12/01 09:15:10;;;;;;;14.13;5.43;;;;;;;2.83;86.42;98889.67;1728402;81;21147;-75
2021/12/01 09:17:37;;;;;;;14.70;6.77;;;;;;;2.89;86.21;98888.19;1720032;81;21085;-75
2021/12/01 09:20:05;;;;;;;13.37;6.20;;;;;;;2.97;86.28;98883.23;1744872;81;21012;-76
2021/12/01 09:22:32;;;;;;;12.27;5.57;;;;;;;3.00;86.16;98879.26;1796764;79;21026;-76
2021/12/01 09:24:59;;;;;;;15.77;6.30;;;;;;;3.02;86.08;98878.74;1720811;81;21242;-74
2021/12/01 09:27:26;;;;;;;15.63;6.50;;;;;;;3.06;86.46;98876.02;1713017;82;21532;-75
2021/12/01 09:29:53;;;;;;;18.97;7.43;;;;;;;3.12;86.55;98873.23;1736685;82;21017;-76
2021/12/01 09:32:20;;;;;;;20.87;8.23;;;;;;;3.13;86.43;98866.31;1733296;81;21599;-76
2021/12/01 09:34:47;;;;;;;12.13;5.73;;;;;;;3.15;86.45;98862.39;1796139;78;21076;-77
2021/12/01 09:37:16;;;;;;;16.47;5.80;;;;;;;3.15;86.62;98858.05;1743217;81;21022;-78
2021/12/01 09:39:45;;;;;;;14.57;4.97;;;;;;;3.18;86.46;98848.89;1796609;77;22080;-74
2021/12/01 09:42:12;;;;;;;14.90;4.77;;;;;;;3.21;86.30;98847.50;1784558;77;21494;-73
2021/12/01 09:44:39;;;;;;;10.70;4.40;;;;;;;3.26;86.52;98842.19;1782261;80;21013;-74
2021/12/01 09:47:07;;;;;;;7.63;3.97;;;;;;;3.31;86.57;98851.95;1782406;79;21005;-74
2021/12/01 09:49:34;;;;;;;11.60;4.57;;;;;;;3.35;86.61;98843.17;1782367;80;21481;-74
2021/12/01 09:52:02;;;;;;;11.60;4.63;;;;;;;3.38;86.60;98835.33;1812417;79;21448;-74
2021/12/01 09:54:29;;;;;;;12.13;4.67;;;;;;;3.38;86.63;98843.09;1814457;79;21010;-74
2021/12/01 09:56:56;;;;;;;13.73;4.93;;;;;;;3.35;86.69;98837.56;1814410;79;20979;-74
2021/12/01 09:59:23;;;;;;;10.00;5.37;;;;;;;3.31;86.83;98832.08;1814476;79;21479;-75
2021/12/01 10:01:50;;;;;;;12.13;6.60;;;;;;;3.30;86.99;98822.63;1814443;78;21514;-74
2021/12/01 10:04:17;;;;;;;11.70;5.37;;;;;;;3.35;86.98;98814.69;1814408;79;21857;-74
2021/12/01 10:06:44;;;;;;;12.63;6.40;;;;;;;3.39;86.96;98814.16;1814321;79;20951;-73
2021/12/01 10:09:13;;;;;;;13.50;6.37;;;;;;;3.42;87.00;98801.94;1814468;79;21048;-74
2021/12/01 10:11:42;;;;;;;12.80;4.40;;;;;;;3.44;87.07;98794.13;1813585;79;20986;-75
2021/12/01 10:14:19;;;;;;;10.47;4.97;;;;;;;3.47;87.19;98783.21;1782401;80;21006;-74
2021/12/01 10:16:52;;;;;;;11.03;4.03;;;;;;;3.51;87.12;98777.47;1782480;79;21164;-75
2021/12/01 10:19:19;;;;;;;12.10;4.20;;;;;;;3.50;87.34;98770.16;1782226;80;20993;-75
2021/12/01 10:21:51;;;;;;;9.83;5.53;;;;;;;3.55;87.62;98776.03;1782662;79;21009;-71
2021/12/01 10:24:23;;;;;;;9.57;4.60;;;;;;;3.57;87.63;98759.11;1782292;80;21009;-70
2021/12/01 10:26:54;;;;;;;8.90;4.30;;;;;;;3.57;87.40;98750.92;1782227;80;21013;-74
2021/12/01 10:29:35;;;;;;;9.90;4.50;;;;;;;3.62;87.50;98748.60;1782546;79;21096;-73
2021/12/01 10:32:11;;;;;;;9.73;4.57;;;;;;;3.63;87.31;98743.80;1781534;80;20997;-73
2021/12/01 10:34:44;;;;;;;13.57;4.57;;;;;;;3.65;87.65;98735.08;1782276;80;21064;-73
2021/12/01 10:37:23;;;;;;;12.97;5.43;;;;;;;3.68;87.63;98721.17;1782779;79;21061;-76
2021/12/01 10:40:12;;;;;;;9.20;5.37;;;;;;;3.71;87.74;98710.23;1803661;79;21464;-75
2021/12/01 10:43:05;;;;;;;11.40;5.83;;;;;;;3.70;87.95;98696.91;1814362;79;21165;-73
2021/12/01 10:45:46;;;;;;;8.87;4.90;;;;;;;3.71;87.94;98704.22;1787653;79;21025;-73
2021/12/01 10:48:23;;;;;;;13.70;7.62;;;;;;;3.70;88.22;98696.06;1782726;80;21025;-75
2021/12/01 10:50:50;;;;;;;12.80;5.20;;;;;;;3.72;88.14;98693.81;1780833;80;20993;-72
2021/12/01 10:53:21;;;;;;;10.60;6.10;;;;;;;3.78;88.24;98686.27;1782705;80;21013;-74
2021/12/01 10:55:56;;;;;;;22.67;12.00;;;;;;;3.83;88.34;98684.35;1782176;80;21115;-73
2021/12/01 10:58:35;;;;;;;9.97;6.37;;;;;;;3.87;88.38;98678.13;1781814;80;20997;-74
2021/12/01 11:01:05;;;;;;;9.60;5.30;;;;;;;3.91;88.39;98669.36;1782342;80;20994;-75
2021/12/01 11:03:33;;;;;;;12.33;7.53;;;;;;;3.95;88.39;98667.03;1782796;80;21022;-74
2021/12/01 11:06:20;;;;;;;13.73;7.93;;;;;;;3.95;88.42;98661.84;1782360;80;21526;-73
2021/12/01 11:08:55;;;;;;;21.00;12.97;;;;;;;3.95;88.61;98654.53;1782123;80;21216;-73
2021/12/01 11:11:20;;;;;;;23.00;14.23;;;;;;;3.95;88.58;98645.45;1782107;80;21464;-74
2021/12/01 11:13:48;;;;;;;32.80;19.10;;;;;;;3.99;88.77;98640.53;1760941;80;21033;-75
2021/12/01 11:16:20;;;;;;;23.73;13.43;;;;;;;4.05;88.64;98632.55;1782244;80;21013;-75
2021/12/01 11:18:50;;;;;;;18.23;9.87;;;;;;;4.06;88.55;98631.63;1782513;80;21069;-77
2021/12/01 11:21:22;;;;;;;9.43;5.65;;;;;;;4.09;88.69;98619.84;1782358;80;21093;-72
2021/12/01 11:23:53;;;;;;;16.97;9.53;;;;;;;4.11;88.54;98613.31;1782411;80;21454;-73
2021/12/01 11:26:24;;;;;;;9.77;5.53;;;;;;;4.12;88.56;98612.39;1782212;80;21025;-72
2021/12/01 11:29:00;;;;;;;10.98;6.80;;;;;;;4.13;88.70;98616.66;1782746;80;21577;-72
2021/12/01 11:31:32;;;;;;;8.80;4.87;;;;;;;4.13;88.83;98615.37;1782385;79;21135;-73
2021/12/01 11:34:03;;;;;;;11.07;7.30;;;;;;;4.13;88.92;98616.66;1782242;79;21475;-73
2021/12/01 11:36:39;;;;;;;7.93;5.23;;;;;;;4.14;88.83;98605.41;1782119;80;20921;-74
2021/12/01 11:39:12;;;;;;;8.47;5.70;;;;;;;4.16;88.75;98596.66;1782544;80;20937;-74
2021/12/01 11:41:43;;;;;;;10.00;6.23;;;;;;;4.19;88.86;98591.81;1782199;80;21064;-74
2021/12/01 11:44:13;;;;;;;11.87;5.57;;;;;;;4.24;88.93;98585.99;1782639;79;21270;-75
2021/12/01 11:46:41;;;;;;;12.63;5.93;;;;;;;4.27;88.94;98588.46;1782368;79;21221;-73
2021/12/01 11:49:14;;;;;;;9.33;4.33;;;;;;;4.30;88.96;98583.14;1782473;79;21140;-72
2021/12/01 11:51:48;;;;;;;8.27;4.37;;;;;;;4.31;89.05;98579.63;1782209;79;21515;-73